Time;durP1;ratioP1;P1;durP2;ratioP2;P2;SDS_P1;SDS_P2;PMS_P1;PMS_P2;Temp;Humidity;BMP_temperature;BMP_pressure;BME280_temperature;BME280_humidity;BME280_pressure;Samples;Min_cycle;Max_cycle;Signal;HPM_P1;HPM_P2
2021/01/17 00:01:22;;;;;;;21.23;14.23;;;0.70;99.90;;;;;;5029453;28;21035;-65
2021/01/17 00:04:07;;;;;;;20.20;14.67;;;0.60;99.90;;;;;;5022047;28;20815;-65
2021/01/17 00:06:51;;;;;;;17.73;14.33;;;0.60;99.90;;;;;;5022484;28;20626;-65
2021/01/17 00:09:36;;;;;;;20.60;14.00;;;0.60;99.90;;;;;;5027064;28;21176;-66
2021/01/17 00:12:21;;;;;;;16.83;13.70;;;0.70;99.90;;;;;;5040448;28;20646;-66
2021/01/17 00:15:09;;;;;;;18.70;13.77;;;0.60;99.90;;;;;;5042555;28;20705;-68
2021/01/17 00:17:54;;;;;;;19.20;15.20;;;0.60;99.90;;;;;;5046696;28;20632;-66
2021/01/17 00:20:38;;;;;;;21.37;14.87;;;0.60;99.90;;;;;;5032425;28;21338;-65
2021/01/17 00:23:25;;;;;;;20.30;14.30;;;0.60;99.90;;;;;;5041418;28;21259;-66
2021/01/17 00:26:10;;;;;;;18.27;14.90;;;0.50;99.90;;;;;;5030997;28;21272;-65
2021/01/17 00:28:54;;;;;;;19.23;14.93;;;0.50;99.90;;;;;;5029752;28;20598;-66
2021/01/17 00:31:39;;;;;;;21.53;15.43;;;0.50;99.90;;;;;;5019791;28;20740;-65
2021/01/17 00:34:23;;;;;;;21.73;14.80;;;0.60;99.90;;;;;;5024761;28;20720;-66
2021/01/17 00:37:08;;;;;;;17.47;14.33;;;0.60;99.90;;;;;;5040503;28;20606;-65
2021/01/17 00:39:53;;;;;;;18.97;14.30;;;0.50;99.90;;;;;;5032156;28;20639;-66
2021/01/17 00:42:44;;;;;;;17.70;13.60;;;0.50;99.90;;;;;;5028500;28;20658;-64
2021/01/17 00:45:31;;;;;;;19.97;14.90;;;0.50;99.90;;;;;;5035157;28;20626;-66
2021/01/17 00:48:15;;;;;;;18.07;13.63;;;0.50;99.90;;;;;;5031276;28;20733;-66
2021/01/17 00:51:00;;;;;;;19.60;14.13;;;0.50;99.90;;;;;;5017897;28;20976;-65
2021/01/17 00:53:45;;;;;;;21.80;14.17;;;0.40;99.90;;;;;;5020158;28;20651;-65
2021/01/17 00:56:30;;;;;;;18.60;13.37;;;0.50;99.90;;;;;;5025224;28;21185;-66
2021/01/17 00:59:15;;;;;;;20.23;14.00;;;0.50;99.90;;;;;;5025575;28;20987;-63
2021/01/17 01:02:01;;;;;;;20.20;15.07;;;0.50;99.90;;;;;;5016841;28;21241;-65
2021/01/17 01:04:46;;;;;;;17.43;14.13;;;0.50;99.90;;;;;;5021905;28;20598;-66
2021/01/17 01:07:30;;;;;;;19.27;13.60;;;0.50;99.90;;;;;;5026835;28;20595;-64
2021/01/17 01:10:16;;;;;;;17.00;13.10;;;0.50;99.90;;;;;;5016966;28;20718;-65
2021/01/17 01:13:00;;;;;;;17.33;13.07;;;0.50;99.90;;;;;;5042186;22;21072;-76
2021/01/17 01:15:45;;;;;;;16.13;12.77;;;0.50;99.90;;;;;;5050691;28;20602;-76
2021/01/17 01:18:29;;;;;;;18.30;14.40;;;0.60;99.90;;;;;;5038682;28;21149;-75
2021/01/17 01:21:14;;;;;;;18.57;13.67;;;0.50;99.90;;;;;;5035172;28;21042;-76
2021/01/17 01:23:59;;;;;;;17.93;13.50;;;0.50;99.90;;;;;;5011801;28;20635;-75
2021/01/17 01:26:46;;;;;;;21.37;14.83;;;0.50;99.90;;;;;;5011982;28;20610;-75
2021/01/17 01:29:31;;;;;;;19.37;13.70;;;0.50;99.90;;;;;;5020388;28;20639;-74
2021/01/17 01:32:15;;;;;;;18.17;13.30;;;0.60;99.90;;;;;;5017473;28;20662;-75
2021/01/17 01:35:00;;;;;;;18.67;14.23;;;0.60;99.90;;;;;;5011487;28;20633;-75
2021/01/17 01:37:45;;;;;;;17.83;13.60;;;0.60;99.90;;;;;;5030549;28;20631;-76
2021/01/17 01:40:32;;;;;;;20.67;14.50;;;0.60;99.90;;;;;;5010391;28;21116;-75
2021/01/17 01:43:23;;;;;;;16.90;14.30;;;0.60;99.90;;;;;;5027906;28;20719;-76
2021/01/17 01:46:11;;;;;;;17.23;13.83;;;0.60;99.90;;;;;;5020024;28;20750;-76
2021/01/17 01:49:00;;;;;;;21.03;14.30;;;0.60;99.90;;;;;;5015866;28;20635;-75
2021/01/17 01:51:45;;;;;;;19.40;14.30;;;0.60;99.90;;;;;;5007935;28;20695;-75
2021/01/17 01:54:31;;;;;;;19.37;14.20;;;0.60;99.90;;;;;;5024285;28;20654;-76
2021/01/17 01:57:18;;;;;;;18.83;13.87;;;0.60;99.90;;;;;;5025163;28;21121;-75
2021/01/17 02:00:08;;;;;;;17.23;13.77;;;0.60;99.90;;;;;;5010203;28;20675;-75
2021/01/17 02:02:53;;;;;;;18.60;14.53;;;0.60;99.90;;;;;;5028359;28;20736;-75
2021/01/17 02:05:37;;;;;;;19.53;14.67;;;0.60;99.90;;;;;;5036723;28;20583;-76
2021/01/17 02:08:57;;;;;;;19.00;14.30;;;0.60;99.90;;;;;;5034218;28;20615;-75
2021/01/17 02:12:03;;;;;;;17.90;14.00;;;0.60;99.90;;;;;;5020340;28;20703;-77
2021/01/17 02:14:57;;;;;;;19.83;13.87;;;0.50;99.90;;;;;;5034532;28;20751;-75
2021/01/17 02:17:42;;;;;;;18.17;14.20;;;0.50;99.90;;;;;;5020081;28;20705;-76
2021/01/17 02:20:28;;;;;;;21.90;14.37;;;0.70;99.90;;;;;;5020029;28;20634;-76
2021/01/17 02:23:25;;;;;;;18.73;14.17;;;0.50;99.90;;;;;;5014946;28;20735;-76
2021/01/17 02:26:09;;;;;;;19.13;13.87;;;0.50;99.90;;;;;;5036313;28;20599;-77
2021/01/17 02:28:56;;;;;;;18.80;14.77;;;0.50;99.90;;;;;;5036669;28;20718;-75
2021/01/17 02:31:42;;;;;;;20.33;14.97;;;0.50;99.90;;;;;;5036082;28;20718;-75
2021/01/17 02:34:29;;;;;;;20.57;15.10;;;0.60;99.90;;;;;;5032710;28;20655;-78
2021/01/17 02:37:34;;;;;;;19.80;14.47;;;0.60;99.90;;;;;;5021595;28;20678;-75
2021/01/17 02:41:06;;;;;;;23.43;15.50;;;0.50;99.90;;;;;;5012455;28;20634;-76
2021/01/17 02:43:51;;;;;;;22.73;15.20;;;0.50;99.90;;;;;;5016742;28;20667;-76
2021/01/17 02:46:36;;;;;;;21.60;15.77;;;0.50;99.90;;;;;;5035321;28;21243;-75
2021/01/17 02:49:21;;;;;;;21.57;15.33;;;0.50;99.90;;;;;;5034275;28;20622;-76
2021/01/17 02:52:06;;;;;;;21.30;14.83;;;0.30;99.90;;;;;;5019237;28;21071;-74
2021/01/17 02:54:53;;;;;;;21.83;16.10;;;0.50;99.90;;;;;;5016586;28;20656;-75
2021/01/17 02:57:44;;;;;;;19.33;13.63;;;0.50;99.90;;;;;;5017271;28;20627;-75
2021/01/17 03:00:33;;;;;;;21.00;14.67;;;0.60;99.90;;;;;;5032087;28;20746;-75
2021/01/17 03:03:20;;;;;;;18.63;14.27;;;0.50;99.90;;;;;;5008010;28;20646;-76
2021/01/17 03:06:10;;;;;;;21.27;15.00;;;0.60;99.90;;;;;;5008863;28;21265;-75
2021/01/17 03:08:55;;;;;;;19.97;13.90;;;0.60;99.90;;;;;;5033274;28;20623;-75
2021/01/17 03:11:40;;;;;;;18.67;13.30;;;0.60;99.90;;;;;;5013315;28;20648;-76
2021/01/17 03:14:30;;;;;;;19.40;15.20;;;0.60;99.90;;;;;;5019053;28;20651;-76
2021/01/17 03:17:14;;;;;;;19.53;14.27;;;0.60;99.90;;;;;;5021511;28;20611;-75
2021/01/17 03:20:02;;;;;;;22.00;15.10;;;0.60;99.90;;;;;;5019954;28;20694;-76
2021/01/17 03:22:49;;;;;;;19.90;14.73;;;0.60;99.90;;;;;;5027793;28;20664;-76
2021/01/17 03:25:33;;;;;;;22.00;14.33;;;0.60;99.90;;;;;;5021788;28;20700;-75
2021/01/17 03:28:18;;;;;;;21.43;14.87;;;0.60;99.90;;;;;;5031683;28;21206;-76
2021/01/17 03:31:02;;;;;;;20.50;14.40;;;0.60;99.90;;;;;;5032793;28;20639;-76
2021/01/17 03:33:47;;;;;;;20.17;14.67;;;0.70;99.90;;;;;;5017786;28;20702;-76
2021/01/17 03:36:34;;;;;;;17.77;14.37;;;0.70;99.90;;;;;;5027581;28;20587;-76
2021/01/17 03:39:19;;;;;;;19.43;14.07;;;0.60;99.90;;;;;;5016322;28;20851;-75
2021/01/17 03:42:29;;;;;;;19.00;15.10;;;0.60;99.90;;;;;;5026651;28;20675;-75
2021/01/17 03:45:14;;;;;;;21.50;15.10;;;0.60;99.90;;;;;;5018394;28;21034;-75
2021/01/17 03:48:08;;;;;;;19.33;14.70;;;0.60;99.90;;;;;;5029663;28;20606;-76
2021/01/17 03:50:52;;;;;;;24.73;15.30;;;0.60;99.90;;;;;;5010662;28;20914;-76
2021/01/17 03:53:37;;;;;;;21.60;14.67;;;0.60;99.90;;;;;;5033933;28;21166;-76
2021/01/17 03:56:27;;;;;;;20.00;15.20;;;0.60;99.90;;;;;;5020812;28;20592;-75
2021/01/17 03:59:28;;;;;;;;;;;;;;;;;;;;;
2021/01/17 04:02:16;;;;;;;20.20;15.57;;;0.70;99.90;;;;;;5015260;28;20654;-76
2021/01/17 04:05:03;;;;;;;20.77;15.77;;;0.70;99.90;;;;;;5018792;28;20610;-75
2021/01/17 04:07:57;;;;;;;20.33;15.30;;;0.70;99.90;;;;;;5013922;28;20985;-77
2021/01/17 04:10:42;;;;;;;18.70;13.80;;;0.70;99.90;;;;;;5012623;28;21004;-77
2021/01/17 04:13:29;;;;;;;19.40;14.87;;;0.70;99.90;;;;;;5019059;28;20670;-76
2021/01/17 04:16:15;;;;;;;24.33;16.10;;;0.70;99.90;;;;;;5026503;28;20662;-76
2021/01/17 04:18:59;;;;;;;19.70;14.80;;;0.70;99.90;;;;;;5018374;28;20755;-76
2021/01/17 04:21:44;;;;;;;20.37;14.00;;;0.70;99.90;;;;;;5027550;28;20667;-76
2021/01/17 04:24:29;;;;;;;22.63;15.90;;;0.70;99.90;;;;;;5016903;28;20595;-74
2021/01/17 04:27:15;;;;;;;20.93;13.97;;;0.70;99.90;;;;;;5047368;28;20699;-76
2021/01/17 04:30:00;;;;;;;22.40;14.53;;;0.80;99.90;;;;;;5029396;28;20690;-75
2021/01/17 04:32:45;;;;;;;19.10;14.80;;;0.70;99.90;;;;;;5033703;28;20722;-75
2021/01/17 04:35:38;;;;;;;23.60;14.87;;;0.70;99.90;;;;;;5031211;28;20650;-75
2021/01/17 04:38:23;;;;;;;19.67;14.80;;;0.70;99.90;;;;;;5019355;28;20651;-76
2021/01/17 04:41:14;;;;;;;23.17;14.83;;;0.70;99.90;;;;;;5007133;28;21458;-75
2021/01/17 04:44:01;;;;;;;21.97;16.07;;;0.70;99.90;;;;;;5001386;28;20685;-75
2021/01/17 04:46:49;;;;;;;21.27;15.47;;;0.70;99.90;;;;;;5009843;28;20634;-75
2021/01/17 04:49:38;;;;;;;20.67;14.97;;;0.70;99.90;;;;;;5021588;28;20746;-75
2021/01/17 04:52:39;;;;;;;21.40;15.63;;;0.70;99.90;;;;;;5046553;28;20658;-75
2021/01/17 04:55:25;;;;;;;19.83;15.67;;;0.70;99.90;;;;;;5017978;28;21217;-75
2021/01/17 04:58:20;;;;;;;22.67;15.50;;;0.60;99.90;;;;;;5013776;28;20974;-76
2021/01/17 05:01:09;;;;;;;19.83;14.77;;;0.60;99.90;;;;;;5022076;28;20639;-76
2021/01/17 05:04:12;;;;;;;22.27;15.60;;;0.60;99.90;;;;;;5011130;28;21242;-75
2021/01/17 05:07:23;;;;;;;21.73;15.83;;;0.60;99.90;;;;;;5013727;28;20600;-76
2021/01/17 05:10:12;;;;;;;19.27;14.27;;;0.60;99.90;;;;;;5032695;28;20667;-75
2021/01/17 05:13:06;;;;;;;23.37;17.00;;;0.60;99.90;;;;;;5008762;28;20762;-77
2021/01/17 05:15:56;;;;;;;24.60;16.00;;;0.60;99.90;;;;;;5006998;28;20664;-76
2021/01/17 05:18:47;;;;;;;25.80;16.20;;;0.60;99.90;;;;;;5017575;28;20630;-76
2021/01/17 05:21:34;;;;;;;21.70;15.90;;;0.60;99.90;;;;;;5015391;28;20713;-76
2021/01/17 05:24:20;;;;;;;25.67;16.53;;;0.60;99.90;;;;;;5004906;28;20611;-76
2021/01/17 05:27:05;;;;;;;21.63;16.07;;;0.60;99.90;;;;;;5023282;28;20651;-77
2021/01/17 05:29:52;;;;;;;22.63;17.17;;;0.60;99.90;;;;;;5012855;28;20619;-76
2021/01/17 05:32:36;;;;;;;24.37;16.30;;;0.60;99.90;;;;;;5029899;28;20651;-76
2021/01/17 05:35:23;;;;;;;24.80;16.90;;;0.60;99.90;;;;;;5030360;28;20686;-76
2021/01/17 05:38:14;;;;;;;22.47;16.90;;;0.60;99.90;;;;;;5017314;28;20678;-75
2021/01/17 05:40:58;;;;;;;26.47;16.57;;;0.60;99.90;;;;;;5017482;28;20631;-75
2021/01/17 05:43:47;;;;;;;21.93;16.37;;;0.60;99.90;;;;;;5018483;28;20579;-75
2021/01/17 05:46:31;;;;;;;24.80;17.50;;;0.60;99.90;;;;;;5032675;28;21205;-75
2021/01/17 05:49:16;;;;;;;25.67;17.33;;;0.50;99.90;;;;;;5034770;28;20616;-75
2021/01/17 05:52:11;;;;;;;25.80;17.40;;;0.50;99.90;;;;;;5017531;28;20642;-76
2021/01/17 05:54:56;;;;;;;24.60;16.60;;;0.50;99.90;;;;;;5035523;28;20658;-75
2021/01/17 05:57:41;;;;;;;24.47;16.70;;;0.60;99.90;;;;;;5018843;28;20666;-76
2021/01/17 06:00:33;;;;;;;27.07;18.33;;;0.50;99.90;;;;;;5017224;28;20696;-75
2021/01/17 06:03:31;;;;;;;26.20;17.90;;;0.50;99.90;;;;;;5030055;28;20654;-74
2021/01/17 06:06:32;;;;;;;27.00;16.83;;;0.50;99.90;;;;;;5033248;28;20853;-75
2021/01/17 06:09:18;;;;;;;25.20;17.30;;;0.50;99.90;;;;;;5018991;28;21180;-75
2021/01/17 06:12:04;;;;;;;27.93;18.40;;;0.70;99.90;;;;;;5030314;28;20702;-75
2021/01/17 06:15:07;;;;;;;21.10;16.53;;;0.50;99.90;;;;;;5021358;28;20671;-76
2021/01/17 06:17:53;;;;;;;24.80;17.53;;;0.50;99.90;;;;;;5022352;28;20629;-75
2021/01/17 06:20:39;;;;;;;27.07;17.57;;;0.50;99.90;;;;;;5023055;28;20692;-75
2021/01/17 06:23:26;;;;;;;28.13;17.20;;;0.40;99.90;;;;;;5035296;28;20659;-75
2021/01/17 06:26:13;;;;;;;22.57;16.37;;;0.40;99.90;;;;;;5035177;28;20658;-75
2021/01/17 06:28:59;;;;;;;24.03;16.90;;;0.40;99.90;;;;;;5020483;28;20662;-74
2021/01/17 06:31:45;;;;;;;23.43;16.87;;;0.40;99.90;;;;;;5033654;28;20650;-76
2021/01/17 06:34:30;;;;;;;25.57;16.97;;;0.40;99.90;;;;;;5017122;28;20651;-76
2021/01/17 06:37:24;;;;;;;21.10;16.43;;;0.40;99.90;;;;;;5029188;28;20711;-76
2021/01/17 06:40:09;;;;;;;24.80;17.03;;;0.40;99.90;;;;;;5007574;28;20650;-76
2021/01/17 06:42:54;;;;;;;23.03;17.63;;;0.40;99.90;;;;;;5026217;28;20642;-74
2021/01/17 06:45:41;;;;;;;24.60;17.40;;;0.30;99.90;;;;;;5017374;28;21435;-76
2021/01/17 06:48:30;;;;;;;25.10;17.20;;;0.30;99.90;;;;;;5022976;28;20632;-75
2021/01/17 06:51:17;;;;;;;28.37;18.00;;;0.30;99.90;;;;;;5031582;28;21125;-76
2021/01/17 06:54:02;;;;;;;25.43;17.90;;;0.30;99.90;;;;;;5033540;28;20647;-75
2021/01/17 06:56:57;;;;;;;24.90;17.47;;;0.30;99.90;;;;;;5023578;28;20692;-75
2021/01/17 06:59:46;;;;;;;25.70;17.13;;;0.50;99.90;;;;;;5029282;28;20667;-76
2021/01/17 07:02:37;;;;;;;26.83;18.30;;;0.30;99.90;;;;;;5019762;28;20660;-76
2021/01/17 07:05:40;;;;;;;26.60;17.07;;;0.30;99.90;;;;;;5006680;28;20660;-76
2021/01/17 07:08:52;;;;;;;23.63;16.87;;;0.20;99.90;;;;;;5031007;28;20591;-74
2021/01/17 07:12:00;;;;;;;27.23;17.07;;;0.20;99.90;;;;;;5031674;22;21298;-70
2021/01/17 07:15:18;;;;;;;25.07;17.53;;;0.20;99.90;;;;;;4987475;28;21137;-71
2021/01/17 07:18:07;;;;;;;23.60;17.00;;;0.20;99.90;;;;;;4989111;28;20640;-70
2021/01/17 07:20:59;;;;;;;24.60;16.70;;;0.20;99.90;;;;;;4996268;28;20632;-71
2021/01/17 07:23:45;;;;;;;28.23;17.70;;;0.20;99.90;;;;;;4993600;28;20723;-70
2021/01/17 07:26:48;;;;;;;25.37;17.40;;;0.20;99.90;;;;;;4987198;28;21192;-70
2021/01/17 07:29:36;;;;;;;28.10;18.43;;;0.10;99.90;;;;;;4983120;28;20623;-70
2021/01/17 07:32:37;;;;;;;26.77;18.00;;;0.10;99.90;;;;;;5000706;28;20800;-71
2021/01/17 07:35:26;;;;;;;26.20;18.73;;;0.10;99.90;;;;;;4989402;28;20655;-71
2021/01/17 07:38:19;;;;;;;25.70;18.70;;;0.10;99.90;;;;;;4994035;28;20676;-71
2021/01/17 07:41:09;;;;;;;26.20;18.17;;;0.10;99.90;;;;;;4981007;28;20633;-73
2021/01/17 07:43:59;;;;;;;26.57;17.83;;;0.10;99.90;;;;;;4985748;28;21150;-72
2021/01/17 07:46:43;;;;;;;26.73;18.00;;;0.10;99.90;;;;;;4980955;28;20652;-71
2021/01/17 07:49:30;;;;;;;29.37;18.40;;;0.10;99.90;;;;;;4989287;28;20612;-72
2021/01/17 07:52:20;;;;;;;27.93;18.27;;;0.10;99.90;;;;;;4984349;28;20691;-72
2021/01/17 07:55:05;;;;;;;25.10;17.50;;;0.10;99.90;;;;;;4987012;28;20620;-71
2021/01/17 07:57:53;;;;;;;26.30;17.30;;;0.10;99.90;;;;;;4989638;28;20744;-71
2021/01/17 08:00:39;;;;;;;26.57;17.57;;;0.10;99.90;;;;;;4995039;28;20951;-71
2021/01/17 08:03:25;;;;;;;27.00;17.53;;;0.10;99.90;;;;;;4982453;28;21000;-71
2021/01/17 08:06:10;;;;;;;23.83;16.13;;;0.10;99.90;;;;;;4989779;28;20612;-71
2021/01/17 08:08:54;;;;;;;27.43;17.37;;;0.10;99.90;;;;;;4985980;28;20758;-71
2021/01/17 08:12:00;;;;;;;25.60;17.53;;;0.10;99.90;;;;;;4987046;28;20648;-75
2021/01/17 08:14:44;;;;;;;24.93;16.47;;;0.10;99.90;;;;;;4982443;28;20756;-71
2021/01/17 08:17:38;;;;;;;26.03;17.60;;;0.10;99.90;;;;;;4978577;28;20620;-74
2021/01/17 08:20:31;;;;;;;26.63;17.53;;;0.10;99.90;;;;;;4970986;28;20640;-76
2021/01/17 08:23:19;;;;;;;26.10;18.13;;;0.00;99.90;;;;;;4969996;28;20668;-78
2021/01/17 08:26:04;;;;;;;26.80;16.90;;;0.10;99.90;;;;;;4967969;28;20652;-76
2021/01/17 08:29:00;;;;;;;26.23;16.90;;;0.10;99.90;;;;;;4972680;28;21532;-71
2021/01/17 08:31:45;;;;;;;27.37;17.80;;;0.20;99.90;;;;;;4979347;28;20672;-71
2021/01/17 08:34:29;;;;;;;29.43;18.73;;;0.20;99.90;;;;;;4982167;28;20585;-71
2021/01/17 08:37:22;;;;;;;26.33;17.70;;;0.30;99.90;;;;;;4982251;28;20975;-71
2021/01/17 08:40:07;;;;;;;24.80;17.30;;;0.30;99.90;;;;;;4991912;28;20809;-71
2021/01/17 08:42:57;;;;;;;25.63;16.77;;;0.30;99.90;;;;;;4989457;28;20638;-71
2021/01/17 08:45:47;;;;;;;23.10;17.60;;;0.30;99.90;;;;;;5001276;28;20652;-71
2021/01/17 08:48:31;;;;;;;26.87;18.03;;;0.30;99.90;;;;;;5006776;28;20597;-71
2021/01/17 08:51:18;;;;;;;27.40;18.07;;;0.30;99.90;;;;;;4997939;28;21006;-71
2021/01/17 08:54:25;;;;;;;27.20;17.70;;;0.40;99.90;;;;;;4985178;28;20608;-71
2021/01/17 08:57:43;;;;;;;27.20;19.83;;;0.40;99.90;;;;;;4984202;28;20728;-71
2021/01/17 09:00:52;;;;;;;25.23;17.07;;;0.40;99.90;;;;;;4998217;28;20709;-71
2021/01/17 09:03:49;;;;;;;25.43;17.50;;;0.40;99.90;;;;;;4989082;28;20727;-71
2021/01/17 09:06:41;;;;;;;27.33;17.37;;;0.40;99.90;;;;;;4998154;28;20588;-71
2021/01/17 09:09:26;;;;;;;25.47;17.80;;;0.40;99.90;;;;;;4986695;28;20581;-71
2021/01/17 09:12:11;;;;;;;28.10;18.10;;;0.40;99.90;;;;;;4983327;28;20675;-71
2021/01/17 09:14:58;;;;;;;25.57;17.23;;;0.50;99.90;;;;;;5000724;28;21097;-71
2021/01/17 09:17:56;;;;;;;24.33;17.03;;;0.50;99.90;;;;;;4986586;28;20611;-71
2021/01/17 09:20:44;;;;;;;25.77;17.67;;;0.60;99.90;;;;;;4983506;28;20624;-71
2021/01/17 09:23:28;;;;;;;24.50;17.20;;;0.50;99.90;;;;;;4988999;28;20632;-71
2021/01/17 09:26:14;;;;;;;22.97;17.00;;;0.50;99.90;;;;;;4999308;28;20608;-71
2021/01/17 09:28:58;;;;;;;24.87;16.57;;;0.60;99.90;;;;;;4986245;28;20584;-71
2021/01/17 09:31:49;;;;;;;25.50;17.60;;;0.60;99.90;;;;;;4989352;28;20636;-71
2021/01/17 09:34:38;;;;;;;25.43;17.00;;;0.60;99.90;;;;;;4987592;28;21181;-71
2021/01/17 09:37:23;;;;;;;22.20;15.87;;;0.60;99.90;;;;;;4995135;28;20625;-71
2021/01/17 09:40:07;;;;;;;23.30;15.50;;;0.60;99.90;;;;;;4998507;28;20696;-71
2021/01/17 09:42:53;;;;;;;24.17;16.60;;;0.60;99.90;;;;;;4984358;28;21008;-71
2021/01/17 09:45:38;;;;;;;26.57;16.70;;;0.70;99.90;;;;;;4986655;28;20623;-71
2021/01/17 09:48:23;;;;;;;24.13;16.17;;;0.70;99.90;;;;;;5002466;28;20648;-71
2021/01/17 09:51:08;;;;;;;22.20;16.20;;;0.70;99.90;;;;;;4995974;28;20629;-73
2021/01/17 09:53:54;;;;;;;24.77;15.67;;;0.80;99.90;;;;;;4985089;28;20771;-73
2021/01/17 09:56:43;;;;;;;21.03;15.83;;;0.80;99.90;;;;;;4992434;28;20751;-74
2021/01/17 09:59:27;;;;;;;24.10;16.90;;;0.80;99.90;;;;;;4978531;28;21214;-71
2021/01/17 10:02:16;;;;;;;27.33;15.70;;;0.80;99.90;;;;;;4999635;28;20644;-72
2021/01/17 10:05:01;;;;;;;24.17;16.63;;;0.90;99.90;;;;;;5001235;28;20932;-72
2021/01/17 10:07:45;;;;;;;22.80;15.00;;;0.90;99.90;;;;;;5001116;28;20565;-72
2021/01/17 10:10:30;;;;;;;23.20;15.10;;;1.00;99.90;;;;;;4982201;28;21343;-72
2021/01/17 10:13:15;;;;;;;22.47;16.13;;;1.00;99.90;;;;;;5002070;28;20667;-73
2021/01/17 10:15:59;;;;;;;22.73;15.63;;;1.10;99.90;;;;;;4982778;28;20651;-72
2021/01/17 10:18:44;;;;;;;24.27;16.13;;;1.20;99.90;;;;;;4987112;28;20615;-72
2021/01/17 10:21:29;;;;;;;22.07;15.00;;;1.20;99.90;;;;;;4997999;28;20639;-72
2021/01/17 10:24:19;;;;;;;21.07;14.97;;;1.20;99.90;;;;;;4986582;28;21174;-73
2021/01/17 10:27:06;;;;;;;22.53;15.80;;;1.20;99.90;;;;;;4983484;28;20608;-71
2021/01/17 10:29:51;;;;;;;22.43;15.47;;;1.30;99.90;;;;;;4981235;28;20632;-71
2021/01/17 10:32:40;;;;;;;23.00;14.83;;;1.30;99.90;;;;;;4982180;28;20819;-71
2021/01/17 10:35:25;;;;;;;20.63;14.20;;;1.30;99.90;;;;;;4979097;28;21249;-72
2021/01/17 10:38:12;;;;;;;19.30;14.17;;;1.40;99.90;;;;;;4974603;28;20585;-72
2021/01/17 10:40:57;;;;;;;21.67;14.80;;;1.40;99.90;;;;;;4970165;28;20825;-73
2021/01/17 10:43:43;;;;;;;21.67;14.87;;;1.50;99.90;;;;;;4975900;28;21064;-72
2021/01/17 10:46:30;;;;;;;19.87;14.37;;;1.60;99.90;;;;;;4988929;28;20710;-72
2021/01/17 10:49:23;;;;;;;21.50;14.90;;;1.60;99.90;;;;;;4983754;28;20596;-72
2021/01/17 10:52:24;;;;;;;16.40;13.00;;;1.60;99.90;;;;;;4983627;28;20659;-72
2021/01/17 10:55:13;;;;;;;17.40;13.70;;;1.60;99.90;;;;;;4996211;28;20655;-72
2021/01/17 10:57:59;;;;;;;19.07;13.37;;;1.70;99.90;;;;;;4982664;28;20778;-73
2021/01/17 11:00:52;;;;;;;18.63;14.00;;;1.80;99.90;;;;;;4982192;28;20691;-76
2021/01/17 11:03:42;;;;;;;17.97;14.53;;;1.90;99.90;;;;;;4982909;28;21080;-75
2021/01/17 11:06:28;;;;;;;19.37;15.07;;;2.00;99.90;;;;;;4997385;28;20775;-74
2021/01/17 11:09:15;;;;;;;20.20;14.80;;;2.00;99.90;;;;;;4983876;28;20612;-74
2021/01/17 11:12:00;;;;;;;19.03;13.97;;;2.10;99.90;;;;;;4982026;28;20663;-76
2021/01/17 11:14:44;;;;;;;22.43;14.50;;;2.20;99.90;;;;;;4998079;28;20648;-76
2021/01/17 11:17:29;;;;;;;20.57;15.20;;;2.20;99.90;;;;;;4985020;28;20978;-75
2021/01/17 11:20:14;;;;;;;18.63;14.30;;;2.30;99.90;;;;;;4998651;28;20682;-75
2021/01/17 11:23:00;;;;;;;18.17;14.53;;;2.50;99.90;;;;;;4998591;28;20652;-75
2021/01/17 11:25:55;;;;;;;22.43;14.20;;;2.50;99.90;;;;;;5009774;28;21411;-73
2021/01/17 11:28:39;;;;;;;17.43;13.33;;;2.60;99.90;;;;;;4996958;28;21350;-72
2021/01/17 11:31:24;;;;;;;20.83;13.37;;;2.60;99.90;;;;;;4991688;28;20906;-72
2021/01/17 11:34:13;;;;;;;16.07;13.10;;;2.70;99.90;;;;;;4979414;28;20719;-72
2021/01/17 11:36:57;;;;;;;18.80;13.90;;;2.70;99.90;;;;;;4981332;28;20636;-72
2021/01/17 11:39:41;;;;;;;21.93;13.70;;;2.70;99.90;;;;;;4984736;28;20612;-73
2021/01/17 11:42:26;;;;;;;18.07;13.40;;;2.70;99.90;;;;;;4985500;28;20652;-72
2021/01/17 11:45:21;;;;;;;19.53;14.10;;;2.70;99.90;;;;;;4995440;28;20655;-72
2021/01/17 11:48:06;;;;;;;18.00;13.67;;;2.70;99.90;;;;;;5018358;28;20648;-73
2021/01/17 11:50:51;;;;;;;17.07;14.30;;;2.70;99.90;;;;;;4995361;28;20719;-74
2021/01/17 11:53:36;;;;;;;18.37;14.93;;;2.70;99.90;;;;;;4998875;28;20645;-75
2021/01/17 11:56:20;;;;;;;21.53;16.03;;;2.70;99.90;;;;;;4982777;28;20631;-73
2021/01/17 11:59:05;;;;;;;21.73;15.70;;;2.70;99.90;;;;;;4999690;28;20576;-72
2021/01/17 12:01:49;;;;;;;21.13;15.10;;;2.70;99.90;;;;;;4999021;28;20832;-72
2021/01/17 12:04:39;;;;;;;17.40;13.97;;;2.70;99.90;;;;;;4980984;28;20624;-73
2021/01/17 12:07:24;;;;;;;19.90;15.10;;;2.70;99.90;;;;;;4992771;28;20577;-73
2021/01/17 12:10:10;;;;;;;18.33;15.17;;;2.80;99.90;;;;;;4986172;28;20589;-70
2021/01/17 12:12:55;;;;;;;19.43;14.70;;;2.90;99.90;;;;;;4987125;28;20735;-70
2021/01/17 12:15:39;;;;;;;18.83;14.40;;;2.90;99.90;;;;;;4993014;28;20656;-70
2021/01/17 12:18:24;;;;;;;20.33;15.23;;;3.00;99.90;;;;;;4992904;28;20792;-70
2021/01/17 12:21:08;;;;;;;19.80;15.30;;;3.00;99.90;;;;;;4979945;28;20999;-69
2021/01/17 12:23:54;;;;;;;21.57;15.63;;;3.00;99.90;;;;;;5001066;28;21062;-70
2021/01/17 12:26:39;;;;;;;19.80;14.60;;;3.00;99.90;;;;;;4979092;28;20620;-70
2021/01/17 12:29:24;;;;;;;19.30;14.20;;;3.00;99.90;;;;;;4978648;28;20640;-70
2021/01/17 12:32:08;;;;;;;20.10;14.93;;;2.90;99.90;;;;;;4993810;28;20863;-71
2021/01/17 12:34:53;;;;;;;19.57;14.70;;;2.90;99.90;;;;;;4987781;28;20703;-70
2021/01/17 12:37:38;;;;;;;19.60;15.83;;;2.80;99.90;;;;;;4977919;28;21073;-70
2021/01/17 12:40:22;;;;;;;21.17;15.80;;;2.80;99.90;;;;;;4991002;28;20680;-70
2021/01/17 12:43:08;;;;;;;22.30;16.20;;;2.70;99.90;;;;;;4991932;28;20655;-70
2021/01/17 12:45:53;;;;;;;23.30;15.80;;;2.80;99.90;;;;;;4981368;28;20668;-70
2021/01/17 12:48:38;;;;;;;21.53;15.63;;;2.70;99.90;;;;;;4982908;28;20640;-70
2021/01/17 12:51:23;;;;;;;20.37;15.97;;;2.70;99.90;;;;;;4980524;28;20752;-69
2021/01/17 12:54:07;;;;;;;23.10;16.17;;;2.80;99.90;;;;;;4989836;28;21258;-70
2021/01/17 12:56:55;;;;;;;20.77;15.10;;;2.70;99.90;;;;;;4980518;28;20632;-70
2021/01/17 12:59:39;;;;;;;18.70;13.90;;;2.70;99.90;;;;;;4974892;28;20640;-70
2021/01/17 13:02:24;;;;;;;21.80;16.07;;;2.80;99.90;;;;;;4976157;28;21207;-70
2021/01/17 13:05:09;;;;;;;22.07;17.00;;;2.70;99.90;;;;;;4988135;28;20644;-70
2021/01/17 13:07:53;;;;;;;19.63;15.10;;;2.70;99.90;;;;;;4978046;28;20580;-70
2021/01/17 13:10:38;;;;;;;19.73;16.20;;;2.70;99.90;;;;;;4979367;28;20679;-70
2021/01/17 13:13:22;;;;;;;20.70;15.20;;;2.70;99.90;;;;;;5037329;23;20719;-76
2021/01/17 13:16:14;;;;;;;19.93;14.30;;;2.70;99.90;;;;;;5015561;28;20746;-74
2021/01/17 13:18:59;;;;;;;20.43;14.80;;;2.60;99.90;;;;;;5027909;28;20674;-74
2021/01/17 13:21:47;;;;;;;23.90;16.60;;;2.80;99.90;;;;;;5019989;28;20705;-75
2021/01/17 13:24:32;;;;;;;23.27;17.20;;;2.90;99.90;;;;;;5002075;28;20783;-75
2021/01/17 13:27:16;;;;;;;18.20;15.10;;;2.90;99.90;;;;;;5007777;28;20619;-79
2021/01/17 13:30:01;;;;;;;20.87;15.30;;;3.00;99.90;;;;;;5010006;28;20983;-76
2021/01/17 13:32:46;;;;;;;20.30;15.40;;;3.10;99.90;;;;;;5000397;28;20690;-75
2021/01/17 13:35:34;;;;;;;23.07;17.83;;;3.00;99.90;;;;;;5009729;28;20700;-77
2021/01/17 13:38:20;;;;;;;22.10;15.40;;;3.00;99.90;;;;;;5005666;28;20607;-76
2021/01/17 13:41:05;;;;;;;22.00;15.60;;;3.00;99.90;;;;;;5007350;28;20635;-75
2021/01/17 13:43:49;;;;;;;21.50;16.80;;;3.00;99.90;;;;;;5003791;28;20880;-75
2021/01/17 13:46:34;;;;;;;21.67;16.60;;;3.10;99.90;;;;;;5009567;28;20636;-75
2021/01/17 13:49:19;;;;;;;21.90;15.93;;;3.20;99.90;;;;;;5012294;28;20739;-75
2021/01/17 13:52:05;;;;;;;20.13;15.60;;;3.20;99.90;;;;;;5014040;28;20595;-76
2021/01/17 13:54:49;;;;;;;23.63;16.83;;;3.20;99.90;;;;;;5007096;28;20651;-75
2021/01/17 13:57:37;;;;;;;22.07;16.07;;;3.20;99.90;;;;;;5012823;28;20623;-75
2021/01/17 14:00:24;;;;;;;27.40;16.93;;;3.20;99.90;;;;;;5011618;28;20592;-75
2021/01/17 14:03:08;;;;;;;20.93;16.50;;;3.20;99.90;;;;;;5008834;28;20682;-75
2021/01/17 14:05:54;;;;;;;19.97;15.43;;;3.10;99.90;;;;;;5009066;28;21244;-76
2021/01/17 14:08:38;;;;;;;23.60;17.10;;;3.10;99.90;;;;;;5010782;28;20682;-75
2021/01/17 14:11:26;;;;;;;22.83;16.73;;;3.10;99.90;;;;;;5010080;28;20689;-77
2021/01/17 14:14:11;;;;;;;24.63;17.30;;;3.10;99.90;;;;;;5008650;28;20642;-76
2021/01/17 14:16:56;;;;;;;20.27;15.23;;;3.00;99.90;;;;;;5005747;28;20640;-75
2021/01/17 14:19:41;;;;;;;21.17;15.67;;;3.10;99.90;;;;;;5009456;28;20658;-75
2021/01/17 14:22:25;;;;;;;24.47;16.27;;;3.20;99.90;;;;;;5016273;28;20595;-76
2021/01/17 14:25:10;;;;;;;22.43;15.97;;;3.30;99.90;;;;;;5010641;28;20784;-75